createdAt,value
2023-02-12T00:02:22.424Z,38.90
2023-02-12T00:04:53.197Z,38.10
2023-02-12T00:07:23.909Z,38.83
2023-02-12T00:09:54.590Z,39.53
2023-02-12T00:12:25.264Z,42.53
2023-02-12T00:14:56.005Z,41.92
2023-02-12T00:17:26.685Z,42.13
2023-02-12T00:19:57.310Z,40.80
2023-02-12T00:22:29.151Z,42.30
2023-02-12T00:24:59.791Z,41.60
2023-02-12T00:27:30.666Z,42.35
2023-02-12T00:30:01.426Z,42.48
2023-02-12T00:32:33.374Z,42.10
2023-02-12T00:35:04.000Z,42.90
2023-02-12T00:37:34.674Z,41.83
2023-02-12T00:40:05.524Z,44.77
2023-02-12T00:42:36.291Z,46.28
2023-02-12T00:45:07.648Z,48.35
2023-02-12T00:47:38.421Z,49.48
2023-02-12T00:50:10.280Z,51.10
2023-02-12T00:52:41.773Z,48.78
2023-02-12T00:55:12.442Z,48.17
2023-02-12T00:57:43.132Z,47.13
2023-02-12T01:00:15.179Z,49.88
2023-02-12T01:02:45.934Z,46.00
2023-02-12T01:05:16.728Z,46.83
2023-02-12T01:07:48.711Z,47.38
2023-02-12T01:10:20.148Z,46.68
2023-02-12T01:12:51.806Z,45.35
2023-02-12T01:15:22.655Z,46.50
2023-02-12T01:17:56.866Z,46.02
2023-02-12T01:20:28.725Z,46.88
2023-02-12T01:22:59.544Z,43.80
2023-02-12T01:25:30.340Z,44.98
2023-02-12T01:28:01.252Z,42.05
2023-02-12T01:30:31.968Z,42.13
2023-02-12T01:33:02.586Z,40.78
2023-02-12T01:35:33.255Z,41.60
2023-02-12T01:38:03.964Z,39.90
2023-02-12T01:40:34.881Z,40.12
2023-02-12T01:43:05.968Z,39.27
2023-02-12T01:45:45.337Z,39.48
2023-02-12T01:48:18.888Z,39.67
2023-02-12T01:50:51.480Z,39.98
2023-02-12T01:53:24.419Z,38.50
2023-02-12T01:55:57.953Z,37.00
2023-02-12T01:58:31.646Z,38.17
2023-02-12T02:01:05.154Z,37.45
2023-02-12T02:03:37.778Z,38.73
2023-02-12T02:06:22.842Z,35.98
2023-02-12T02:08:54.298Z,36.28
2023-02-12T02:11:42.323Z,35.45
2023-02-12T02:14:30.583Z,35.58
2023-02-12T02:17:21.691Z,37.38
2023-02-12T02:19:54.882Z,36.50
2023-02-12T02:22:47.698Z,37.48
2023-02-12T02:25:35.764Z,36.98
2023-02-12T02:28:27.103Z,36.48
2023-02-12T02:31:09.495Z,37.58
2023-02-12T02:33:48.326Z,35.68
2023-02-12T02:36:36.678Z,37.80
2023-02-12T02:39:31.200Z,38.70
2023-02-12T02:42:19.213Z,37.42
2023-02-12T02:44:57.869Z,36.40
2023-02-12T02:47:31.027Z,36.73
2023-02-12T02:50:04.268Z,37.70
2023-02-12T02:52:49.207Z,39.75
2023-02-12T02:55:22.704Z,39.58
2023-02-12T02:57:57.276Z,37.78
2023-02-12T03:00:36.380Z,37.45
2023-02-12T03:03:09.714Z,36.88
2023-02-12T03:05:48.603Z,37.75
2023-02-12T03:08:25.890Z,36.65
2023-02-12T03:10:59.133Z,35.73
2023-02-12T03:13:32.280Z,34.88
2023-02-12T03:16:08.360Z,33.45
2023-02-12T03:18:47.736Z,33.88
2023-02-12T03:21:20.926Z,32.03
2023-02-12T03:23:57.133Z,33.30
2023-02-12T03:26:39.199Z,32.67
2023-02-12T03:29:10.065Z,32.63
2023-02-12T03:31:55.453Z,31.73
2023-02-12T03:34:53.104Z,31.90
2023-02-12T03:37:35.225Z,31.10
2023-02-12T03:40:20.324Z,32.30
2023-02-12T03:42:59.509Z,30.05
2023-02-12T03:45:38.413Z,31.33
2023-02-12T03:48:36.075Z,30.30
2023-02-12T03:51:26.393Z,28.90
2023-02-12T03:54:02.750Z,27.60
2023-02-12T03:59:05.674Z,23.67
2023-02-12T04:01:37.954Z,25.45
2023-02-12T04:04:10.831Z,18.75
2023-02-12T04:06:42.225Z,21.73
2023-02-12T04:09:14.647Z,23.73
2023-02-12T04:12:03.760Z,21.95
2023-02-12T04:15:06.133Z,21.97
2023-02-12T04:18:05.912Z,19.30
2023-02-12T04:20:54.762Z,20.27
2023-02-12T04:23:37.127Z,21.75
2023-02-12T04:26:10.299Z,22.22
2023-02-12T04:28:43.506Z,21.42
2023-02-12T04:31:37.942Z,21.15
2023-02-12T04:34:14.156Z,21.60
2023-02-12T04:36:53.217Z,20.90
2023-02-12T04:39:26.967Z,21.20
2023-02-12T04:41:59.048Z,19.67
2023-02-12T04:44:32.576Z,20.57
2023-02-12T04:47:03.851Z,19.40
2023-02-12T04:49:35.474Z,18.50
2023-02-12T04:52:06.241Z,17.62
2023-02-12T04:54:37.284Z,18.23
2023-02-12T04:57:08.010Z,19.70
2023-02-12T04:59:38.713Z,16.35
2023-02-12T05:02:09.430Z,15.45
2023-02-12T05:04:40.129Z,16.75
2023-02-12T05:07:10.867Z,17.05
2023-02-12T05:09:41.796Z,17.40
2023-02-12T05:12:12.675Z,16.07
2023-02-12T05:14:43.462Z,18.27
2023-02-12T05:17:14.071Z,16.82
2023-02-12T05:19:44.830Z,17.00
2023-02-12T05:22:16.163Z,17.37
2023-02-12T05:24:47.107Z,16.93
2023-02-12T05:27:17.818Z,16.23
2023-02-12T05:29:48.472Z,16.45
2023-02-12T05:32:19.138Z,15.90
2023-02-12T05:34:49.963Z,13.75
2023-02-12T05:37:20.652Z,15.75
2023-02-12T05:39:52.615Z,15.28
2023-02-12T05:42:23.589Z,15.83
2023-02-12T05:44:54.305Z,15.70
2023-02-12T05:47:24.948Z,14.83
2023-02-12T05:49:55.620Z,14.28
2023-02-12T05:52:26.275Z,16.73
2023-02-12T05:54:56.979Z,15.58
2023-02-12T05:57:27.617Z,15.50
2023-02-12T05:59:58.322Z,15.55
2023-02-12T06:02:30.275Z,15.43
2023-02-12T06:05:00.923Z,14.73
2023-02-12T06:07:31.742Z,15.15
2023-02-12T06:10:02.428Z,14.75
2023-02-12T06:12:33.131Z,15.23
2023-02-12T06:15:03.971Z,16.75
2023-02-12T06:17:35.900Z,14.87
2023-02-12T06:20:07.448Z,14.25
2023-02-12T06:22:39.397Z,15.40
2023-02-12T06:25:11.331Z,13.25
2023-02-12T06:27:43.415Z,15.95
2023-02-12T06:30:16.176Z,13.80
2023-02-12T06:32:52.237Z,14.03
2023-02-12T06:35:25.088Z,12.73
2023-02-12T06:37:56.193Z,13.38
2023-02-12T06:40:30.275Z,12.50
2023-02-12T06:43:01.183Z,13.88
2023-02-12T06:45:31.931Z,13.08
2023-02-12T06:48:05.054Z,13.95
2023-02-12T06:50:37.303Z,13.32
2023-02-12T06:53:08.200Z,12.50
2023-02-12T06:55:38.894Z,13.80
2023-02-12T06:58:09.681Z,12.85
2023-02-12T07:00:40.462Z,13.08
2023-02-12T07:03:11.455Z,12.35
2023-02-12T07:05:45.189Z,12.80
2023-02-12T07:08:17.626Z,14.98
2023-02-12T07:10:51.399Z,12.65
2023-02-12T07:13:22.148Z,12.40
2023-02-12T07:15:52.836Z,12.25
2023-02-12T07:18:23.651Z,13.10
2023-02-12T07:20:54.318Z,11.57
2023-02-12T07:23:25.061Z,11.18
2023-02-12T07:26:00.190Z,11.25
2023-02-12T07:28:32.575Z,10.98
2023-02-12T07:31:05.027Z,11.05
2023-02-12T07:33:35.779Z,10.53
2023-02-12T07:36:08.985Z,10.28
2023-02-12T07:38:43.575Z,10.72
2023-02-12T07:41:19.852Z,9.35
2023-02-12T07:46:23.938Z,9.90
2023-02-12T07:48:55.071Z,9.18
2023-02-12T07:51:27.550Z,11.18
2023-02-12T07:53:58.475Z,8.63
2023-02-12T07:56:33.002Z,11.43
2023-02-12T07:59:06.633Z,9.98
2023-02-12T08:01:42.614Z,10.30
2023-02-12T08:04:16.079Z,10.43
2023-02-12T08:06:49.008Z,10.18
2023-02-12T08:09:22.273Z,10.50
2023-02-12T08:11:53.514Z,10.70
2023-02-12T08:14:24.856Z,10.40
2023-02-12T08:16:56.159Z,10.00
2023-02-12T08:19:27.005Z,8.75
2023-02-12T08:21:58.990Z,8.80
2023-02-12T08:24:30.269Z,9.40
2023-02-12T08:27:01.022Z,9.40
2023-02-12T08:29:33.806Z,9.68
2023-02-12T08:32:07.617Z,9.15
2023-02-12T08:34:39.960Z,8.50
2023-02-12T08:37:11.443Z,8.90
2023-02-12T08:39:42.428Z,9.03
2023-02-12T08:42:13.853Z,9.00
2023-02-12T08:44:45.416Z,8.63
2023-02-12T08:47:16.368Z,9.05
2023-02-12T08:49:47.775Z,9.15
2023-02-12T08:52:20.188Z,8.33
2023-02-12T08:54:52.046Z,8.23
2023-02-12T08:57:23.258Z,8.80
2023-02-12T08:59:53.871Z,8.63
2023-02-12T09:02:24.892Z,7.97
2023-02-12T09:04:56.433Z,7.62
2023-02-12T09:07:28.153Z,8.35
2023-02-12T09:09:58.866Z,10.88
2023-02-12T09:12:30.160Z,7.37
2023-02-12T09:15:01.167Z,7.50
2023-02-12T09:17:33.114Z,7.20
2023-02-12T09:20:04.808Z,7.15
2023-02-12T09:22:37.020Z,8.03
2023-02-12T09:25:09.277Z,7.53
2023-02-12T09:27:41.543Z,7.17
2023-02-12T09:30:13.181Z,7.45
2023-02-12T09:32:43.839Z,7.37
2023-02-12T09:35:14.632Z,7.72
2023-02-12T09:37:45.995Z,7.20
2023-02-12T09:40:25.185Z,7.12
2023-02-12T09:43:04.267Z,6.33
2023-02-12T09:45:37.475Z,6.65
2023-02-12T09:48:22.498Z,6.33
2023-02-12T09:51:01.373Z,10.43
2023-02-12T09:53:33.763Z,6.03
2023-02-12T09:56:04.530Z,5.92
2023-02-12T09:58:42.074Z,5.80
2023-02-12T10:01:20.822Z,6.28
2023-02-12T10:03:53.694Z,6.30
2023-02-12T10:06:26.905Z,6.33
2023-02-12T10:09:12.588Z,5.55
2023-02-12T10:12:05.802Z,5.87
2023-02-12T10:14:53.980Z,6.80
2023-02-12T10:17:36.208Z,11.25
2023-02-12T10:20:18.643Z,6.58
2023-02-12T10:23:03.613Z,6.60
2023-02-12T10:25:45.503Z,6.65
2023-02-12T10:28:18.726Z,6.20
2023-02-12T10:30:55.087Z,6.25
2023-02-12T10:36:12.637Z,6.60
2023-02-12T10:38:47.238Z,7.08
2023-02-12T10:41:19.876Z,6.10
2023-02-12T10:43:50.792Z,6.50
2023-02-12T10:46:21.492Z,6.10
2023-02-12T10:52:36.580Z,7.20
2023-02-12T10:55:10.291Z,8.00
2023-02-12T10:57:42.354Z,7.65
2023-02-12T11:00:24.853Z,7.20
2023-02-12T11:03:10.362Z,7.40
2023-02-12T11:05:43.439Z,7.20
2023-02-12T11:08:36.226Z,7.42
2023-02-12T11:11:18.208Z,7.72
2023-02-12T11:13:57.100Z,7.60
2023-02-12T11:16:32.681Z,7.15
2023-02-12T11:19:08.957Z,7.80
2023-02-12T11:21:39.762Z,7.55
2023-02-12T11:24:35.492Z,8.38
2023-02-12T11:45:40.139Z,7.95
2023-02-12T13:14:22.178Z,13.00
2023-02-12T13:23:45.503Z,13.50
2023-02-12T13:26:34.940Z,13.40
2023-02-12T13:29:39.771Z,12.68
2023-02-12T13:32:31.078Z,13.38
2023-02-12T13:51:48.580Z,12.98
2023-02-12T13:54:44.064Z,12.93
2023-02-12T13:57:20.755Z,12.90
2023-02-12T13:59:54.898Z,12.23
2023-02-12T14:02:39.071Z,13.18
2023-02-12T14:05:27.769Z,13.28
2023-02-12T14:08:05.718Z,14.33
2023-02-12T14:10:42.033Z,14.83
2023-02-12T14:13:28.598Z,14.38
2023-02-12T14:16:00.119Z,14.03
2023-02-12T14:28:05.081Z,15.90
2023-02-12T14:30:42.295Z,15.15
2023-02-12T14:33:27.215Z,16.25
2023-02-12T14:36:16.924Z,15.45
2023-02-12T14:38:50.260Z,15.63
2023-02-12T14:41:41.932Z,16.90
2023-02-12T14:44:28.053Z,15.85
2023-02-12T14:47:11.015Z,17.35
2023-02-12T14:49:50.158Z,17.12
2023-02-12T14:52:25.361Z,18.27
2023-02-12T14:55:06.858Z,17.95
2023-02-12T14:57:45.359Z,18.55
2023-02-12T15:00:18.734Z,18.27
2023-02-12T15:03:08.587Z,19.70
2023-02-12T15:05:54.169Z,19.77
2023-02-12T15:08:44.029Z,18.50
2023-02-12T15:11:39.708Z,19.17
2023-02-12T15:14:20.527Z,19.85
2023-02-12T15:17:10.926Z,18.90
2023-02-12T15:20:00.599Z,18.70
2023-02-12T15:22:44.761Z,18.80
2023-02-12T15:25:35.780Z,21.15
2023-02-12T15:28:43.615Z,20.23
2023-02-12T15:31:16.824Z,19.42
2023-02-12T15:33:52.980Z,20.43
2023-02-12T15:36:28.866Z,21.57
2023-02-12T15:39:02.784Z,21.85
2023-02-12T15:41:39.975Z,22.00
2023-02-12T15:50:37.286Z,23.55
2023-02-12T15:53:08.209Z,35.33
2023-02-12T15:55:43.692Z,36.98
2023-02-12T15:58:28.986Z,32.65
2023-02-12T16:01:08.532Z,31.60
2023-02-12T16:03:49.159Z,24.82
2023-02-12T16:06:21.070Z,23.85
2023-02-12T16:09:03.550Z,23.42
2023-02-12T16:11:36.418Z,24.40
2023-02-12T16:14:09.944Z,23.18
2023-02-12T16:16:53.297Z,24.20
2023-02-12T16:19:26.672Z,25.17
2023-02-12T16:22:08.893Z,24.23
2023-02-12T16:24:42.199Z,22.73
2023-02-12T16:27:33.720Z,22.25
2023-02-12T16:30:08.723Z,23.92
2023-02-12T16:32:42.167Z,21.62
2023-02-12T16:35:15.446Z,20.95
2023-02-12T16:40:52.484Z,22.13
2023-02-12T16:50:08.792Z,20.52
2023-02-12T16:55:30.514Z,20.40
2023-02-12T16:55:57.123Z,21.05
2023-02-12T16:59:03.157Z,21.20
2023-02-12T17:01:41.963Z,22.22
2023-02-12T17:04:25.088Z,21.07
2023-02-12T17:07:35.456Z,21.90
2023-02-12T17:10:06.860Z,21.65
2023-02-12T17:12:41.454Z,21.45
2023-02-12T17:15:32.234Z,21.30
2023-02-12T17:18:16.303Z,21.42
2023-02-12T17:21:02.444Z,22.77
2023-02-12T17:23:52.244Z,22.27
2023-02-12T17:26:19.469Z,21.55
2023-02-12T17:28:50.477Z,21.85
2023-02-12T17:31:21.842Z,22.45
2023-02-12T17:33:52.958Z,21.70
2023-02-12T17:36:27.164Z,22.25
2023-02-12T17:38:58.122Z,21.68
2023-02-12T17:44:23.769Z,22.58
2023-02-12T17:46:55.994Z,21.85
2023-02-12T17:49:26.972Z,21.80
2023-02-12T17:52:01.734Z,22.32
2023-02-12T17:54:32.746Z,22.15
2023-02-12T17:57:13.877Z,22.10
2023-02-12T17:59:47.705Z,22.73
2023-02-12T18:02:29.574Z,21.97
2023-02-12T18:07:42.649Z,22.95
2023-02-12T18:10:14.488Z,22.77
2023-02-12T18:12:51.601Z,21.68
2023-02-12T18:15:39.924Z,23.10
2023-02-12T18:18:52.533Z,23.87
2023-02-12T18:25:03.353Z,22.25
2023-02-12T18:27:53.993Z,23.67
2023-02-12T18:36:53.336Z,24.70
2023-02-12T18:39:24.239Z,24.80
2023-02-12T18:41:55.167Z,25.70
2023-02-12T18:44:26.188Z,25.15
2023-02-12T18:46:58.502Z,25.80
2023-02-12T18:49:31.102Z,25.05
2023-02-12T18:52:03.151Z,26.07
2023-02-12T18:54:34.072Z,26.27
2023-02-12T18:57:04.993Z,25.02
2023-02-12T18:59:51.846Z,25.85
2023-02-12T19:02:22.632Z,24.92
2023-02-12T19:04:53.380Z,24.77
2023-02-12T19:07:24.095Z,25.20
2023-02-12T19:09:56.060Z,24.82
2023-02-12T19:12:27.109Z,24.77
2023-02-12T19:14:57.735Z,24.77
2023-02-12T19:17:28.415Z,25.45
2023-02-12T19:19:59.068Z,25.70
2023-02-12T19:22:29.734Z,25.52
2023-02-12T19:25:00.374Z,24.82
2023-02-12T19:29:28.061Z,25.45
2023-02-12T19:30:28.836Z,25.92
2023-02-12T19:33:10.758Z,25.30
2023-02-12T19:35:47.985Z,26.12
2023-02-12T19:38:31.824Z,26.55
2023-02-12T19:41:16.384Z,26.55
2023-02-12T19:43:48.117Z,27.20
2023-02-12T19:46:21.127Z,26.95
2023-02-12T19:48:52.044Z,26.30
2023-02-12T19:51:25.446Z,25.90
2023-02-12T19:53:57.512Z,28.05
2023-02-12T19:56:28.137Z,25.77
2023-02-12T19:58:59.706Z,26.95
2023-02-12T20:01:31.359Z,26.17
2023-02-12T20:04:02.553Z,27.10
2023-02-12T20:06:35.725Z,27.77
2023-02-12T20:09:07.776Z,28.00
2023-02-12T20:11:40.826Z,28.35
2023-02-12T20:14:13.990Z,28.42
2023-02-12T20:16:46.093Z,27.70
2023-02-12T20:19:24.855Z,27.32
2023-02-12T20:21:57.087Z,27.35
2023-02-12T20:24:30.090Z,28.62
2023-02-12T20:27:01.831Z,28.10
2023-02-12T20:29:32.464Z,28.12
2023-02-12T20:32:03.149Z,28.25
2023-02-12T20:34:48.861Z,27.67
2023-02-12T20:37:07.531Z,29.10
2023-02-12T20:39:38.260Z,28.83
2023-02-12T20:42:09.108Z,27.67
2023-02-12T20:44:39.959Z,27.65
2023-02-12T20:47:10.594Z,28.25
2023-02-12T20:49:41.399Z,29.27
2023-02-12T20:52:12.349Z,27.62
2023-02-12T20:54:43.340Z,28.27
2023-02-12T20:57:14.124Z,28.05
2023-02-12T20:59:44.869Z,29.15
2023-02-12T21:02:18.667Z,28.80
2023-02-12T21:04:53.619Z,28.98
2023-02-12T21:07:24.585Z,29.30
2023-02-12T21:09:55.468Z,29.80
2023-02-12T21:12:26.115Z,29.35
2023-02-12T21:15:05.750Z,29.55
2023-02-12T21:17:41.859Z,29.72
2023-02-12T21:20:18.321Z,29.42
2023-02-12T21:22:49.180Z,29.27
2023-02-12T21:25:19.986Z,30.92
2023-02-12T21:27:50.701Z,30.55
2023-02-12T21:31:06.381Z,29.23
2023-02-12T21:33:31.915Z,29.72
2023-02-12T21:36:34.896Z,29.98
2023-02-12T21:39:24.119Z,30.10
2023-02-12T21:44:53.780Z,30.12
2023-02-12T21:47:27.416Z,29.85
2023-02-12T21:49:58.236Z,30.08
2023-02-12T21:52:28.972Z,30.57
2023-02-12T21:54:59.679Z,31.05
2023-02-12T21:57:33.188Z,31.23
2023-02-12T22:00:03.247Z,31.02
2023-02-12T22:02:33.936Z,30.92
2023-02-12T22:05:04.653Z,29.02
2023-02-12T22:07:35.304Z,31.68
2023-02-12T22:10:07.425Z,29.98
2023-02-12T22:12:38.673Z,31.80
2023-02-12T22:15:39.709Z,31.70
2023-02-12T22:18:07.450Z,30.90
2023-02-12T22:20:38.166Z,30.68
2023-02-12T22:23:08.818Z,32.35
2023-02-12T22:25:39.499Z,31.40
2023-02-12T22:28:10.282Z,32.33
2023-02-12T22:30:41.030Z,33.00
2023-02-12T22:33:11.667Z,31.68
2023-02-12T22:35:42.334Z,31.55
2023-02-12T22:38:12.973Z,33.20
2023-02-12T22:40:43.616Z,33.20
2023-02-12T22:43:14.220Z,35.08
2023-02-12T22:45:46.492Z,33.23
2023-02-12T22:48:39.376Z,37.48
2023-02-12T22:51:13.570Z,36.58
2023-02-12T22:53:44.238Z,36.73
2023-02-12T22:56:15.308Z,35.15
2023-02-12T22:58:46.069Z,36.25
2023-02-12T23:01:18.932Z,36.25
2023-02-12T23:03:49.620Z,34.65
2023-02-12T23:06:22.913Z,35.48
2023-02-12T23:08:59.894Z,33.42
2023-02-12T23:11:32.050Z,35.60
2023-02-12T23:14:03.230Z,34.33
2023-02-12T23:16:33.911Z,35.60
2023-02-12T23:19:04.695Z,33.73
2023-02-12T23:21:35.377Z,33.55
2023-02-12T23:24:06.156Z,34.10
2023-02-12T23:26:37.828Z,33.65
2023-02-12T23:29:08.577Z,34.60
2023-02-12T23:31:39.594Z,33.83
2023-02-12T23:34:10.396Z,34.58
2023-02-12T23:36:41.031Z,34.00
2023-02-12T23:39:13.594Z,34.40
2023-02-12T23:41:44.198Z,34.75
2023-02-12T23:44:15.322Z,35.35
2023-02-12T23:46:46.056Z,35.52
2023-02-12T23:49:16.706Z,36.20
2023-02-12T23:51:48.823Z,35.58
2023-02-12T23:54:19.484Z,34.38
2023-02-12T23:56:50.350Z,35.10
2023-02-12T23:59:21.082Z,35.50
